createdAt,value
2022-12-09T00:00:21.240Z,2.39
2022-12-09T00:02:38.740Z,2.42
2022-12-09T00:04:55.810Z,2.39
2022-12-09T00:07:12.841Z,2.33
2022-12-09T00:09:30.021Z,2.28
2022-12-09T00:11:47.281Z,2.26
2022-12-09T00:14:04.314Z,2.26
2022-12-09T00:16:21.351Z,2.27
2022-12-09T00:18:38.681Z,2.32
2022-12-09T00:20:56.922Z,2.29
2022-12-09T00:23:14.032Z,2.25
2022-12-09T00:25:31.025Z,2.21
2022-12-09T00:27:48.050Z,2.20
2022-12-09T00:30:08.284Z,2.22
2022-12-09T00:32:25.409Z,2.24
2022-12-09T00:34:42.838Z,2.24
2022-12-09T00:37:01.444Z,2.26
2022-12-09T00:39:18.837Z,2.24
2022-12-09T00:41:36.656Z,2.24
2022-12-09T00:43:54.287Z,2.22
2022-12-09T00:46:12.534Z,2.18
2022-12-09T00:48:29.520Z,2.17
2022-12-09T00:50:46.615Z,2.17
2022-12-09T00:53:04.839Z,2.20
2022-12-09T00:55:22.029Z,2.19
2022-12-09T00:57:39.256Z,2.17
2022-12-09T00:59:56.597Z,2.16
2022-12-09T01:02:13.739Z,2.17
2022-12-09T01:04:31.219Z,2.22
2022-12-09T01:06:48.526Z,2.23
2022-12-09T01:09:06.049Z,2.23
2022-12-09T01:11:23.190Z,2.21
2022-12-09T01:13:40.187Z,2.17
2022-12-09T01:18:37.805Z,2.15
2022-12-09T01:20:54.918Z,2.13
2022-12-09T01:23:11.985Z,2.08
2022-12-09T01:25:30.299Z,2.07
2022-12-09T01:27:47.303Z,2.08
2022-12-09T01:30:04.460Z,2.07
2022-12-09T01:32:22.120Z,2.07
2022-12-09T01:34:39.239Z,2.07
2022-12-09T01:36:56.276Z,2.12
2022-12-09T01:39:13.394Z,2.10
2022-12-09T01:41:30.748Z,2.10
2022-12-09T01:43:47.912Z,2.07
2022-12-09T01:46:04.944Z,2.06
2022-12-09T01:48:23.285Z,2.06
2022-12-09T01:50:40.541Z,2.05
2022-12-09T01:52:57.458Z,2.02
2022-12-09T01:55:14.668Z,2.04
2022-12-09T01:57:32.834Z,2.03
2022-12-09T01:59:50.470Z,2.06
2022-12-09T02:02:07.623Z,2.06
2022-12-09T02:04:25.608Z,2.01
2022-12-09T02:06:42.964Z,1.97
2022-12-09T02:09:00.046Z,1.97
2022-12-09T02:11:18.403Z,1.98
2022-12-09T02:13:35.821Z,1.97
2022-12-09T02:15:53.331Z,2.00
2022-12-09T02:18:10.545Z,2.00
2022-12-09T02:20:27.858Z,1.99
2022-12-09T02:22:45.220Z,1.97
2022-12-09T02:25:02.269Z,1.99
2022-12-09T02:27:20.681Z,1.98
2022-12-09T02:29:39.094Z,1.99
2022-12-09T02:31:56.151Z,1.98
2022-12-09T02:34:13.621Z,1.97
2022-12-09T02:36:31.075Z,1.98
2022-12-09T02:38:48.363Z,1.96
2022-12-09T02:41:05.929Z,1.96
2022-12-09T02:43:22.951Z,1.97
2022-12-09T02:45:40.313Z,1.96
2022-12-09T02:47:57.500Z,1.94
2022-12-09T02:50:14.837Z,1.93
2022-12-09T02:52:32.333Z,1.96
2022-12-09T02:54:49.456Z,1.93
2022-12-09T02:57:06.879Z,1.92
2022-12-09T02:59:23.951Z,1.92
2022-12-09T03:01:41.203Z,1.91
2022-12-09T03:03:59.517Z,1.96
2022-12-09T03:06:17.218Z,1.94
2022-12-09T03:08:34.242Z,1.94
2022-12-09T03:10:51.354Z,1.93
2022-12-09T03:13:08.369Z,1.88
2022-12-09T03:15:26.599Z,1.83
2022-12-09T03:17:43.970Z,1.80
2022-12-09T03:20:01.058Z,1.80
2022-12-09T03:22:18.362Z,1.81
2022-12-09T03:24:35.446Z,1.78
2022-12-09T03:26:52.611Z,1.78
2022-12-09T03:29:09.822Z,1.77
2022-12-09T03:31:27.086Z,1.81
2022-12-09T03:33:44.605Z,1.80
2022-12-09T03:36:01.902Z,1.76
2022-12-09T03:38:18.927Z,1.73
2022-12-09T03:40:35.956Z,1.72
2022-12-09T03:42:53.208Z,1.71
2022-12-09T03:45:10.336Z,1.70
2022-12-09T03:47:27.732Z,1.73
2022-12-09T03:49:44.895Z,1.76
2022-12-09T03:52:01.927Z,1.72
2022-12-09T03:54:19.276Z,1.73
2022-12-09T03:56:36.314Z,1.71
2022-12-09T03:58:53.199Z,1.69
2022-12-09T04:01:10.466Z,1.70
2022-12-09T04:03:28.561Z,1.71
2022-12-09T04:05:47.213Z,1.71
2022-12-09T04:08:04.309Z,1.68
2022-12-09T04:10:21.778Z,1.67
2022-12-09T04:12:38.815Z,1.66
2022-12-09T04:14:56.076Z,1.67
2022-12-09T04:17:13.437Z,1.69
2022-12-09T04:19:30.791Z,1.67
2022-12-09T04:21:48.290Z,1.65
2022-12-09T04:24:05.245Z,1.66
2022-12-09T04:26:22.536Z,1.65
2022-12-09T04:28:39.919Z,1.64
2022-12-09T04:30:57.384Z,1.67
2022-12-09T04:33:15.250Z,1.72
2022-12-09T04:35:32.544Z,1.74
2022-12-09T04:37:49.953Z,1.70
2022-12-09T04:40:08.377Z,1.70
2022-12-09T04:42:26.002Z,1.73
2022-12-09T04:44:43.094Z,1.76
2022-12-09T04:47:00.428Z,1.73
2022-12-09T04:49:17.667Z,1.70
2022-12-09T04:51:39.669Z,1.70
2022-12-09T04:53:57.402Z,1.68
2022-12-09T04:56:14.564Z,1.70
2022-12-09T04:58:31.864Z,1.72
2022-12-09T05:00:49.005Z,1.72
2022-12-09T05:03:06.606Z,1.71
2022-12-09T05:05:23.993Z,1.67
2022-12-09T05:07:42.483Z,1.67
2022-12-09T05:10:00.492Z,1.65
2022-12-09T05:12:18.042Z,1.63
2022-12-09T05:14:35.649Z,1.65
2022-12-09T05:16:53.098Z,1.64
2022-12-09T05:19:10.598Z,1.64
2022-12-09T05:21:28.154Z,1.65
2022-12-09T05:23:45.300Z,1.61
2022-12-09T05:26:02.681Z,1.60
2022-12-09T05:28:20.083Z,1.60
2022-12-09T05:30:37.584Z,1.62
2022-12-09T05:32:55.331Z,1.65
2022-12-09T05:35:12.647Z,1.67
2022-12-09T05:37:29.759Z,1.70
2022-12-09T05:39:47.584Z,1.75
2022-12-09T05:42:04.786Z,1.68
2022-12-09T05:44:22.219Z,1.65
2022-12-09T05:46:39.674Z,1.66
2022-12-09T05:48:57.083Z,1.67
2022-12-09T05:51:14.237Z,1.67
2022-12-09T05:53:32.087Z,1.66
2022-12-09T05:55:49.689Z,1.64
2022-12-09T05:58:07.454Z,1.64
2022-12-09T06:00:24.503Z,1.63
2022-12-09T06:02:41.815Z,1.64
2022-12-09T06:04:59.371Z,1.64
2022-12-09T06:07:17.056Z,1.64
2022-12-09T06:09:34.540Z,1.65
2022-12-09T06:11:51.984Z,1.62
2022-12-09T06:14:09.513Z,1.61
2022-12-09T06:16:27.293Z,1.60
2022-12-09T06:18:46.030Z,1.63
2022-12-09T06:21:06.224Z,1.60
2022-12-09T06:23:23.658Z,1.59
2022-12-09T06:25:41.097Z,1.60
2022-12-09T06:27:59.035Z,1.58
2022-12-09T06:30:16.893Z,1.60
2022-12-09T06:32:34.447Z,1.63
2022-12-09T06:34:51.681Z,1.64
2022-12-09T06:37:09.293Z,1.69
2022-12-09T06:39:26.797Z,1.72
2022-12-09T06:41:44.467Z,1.68
2022-12-09T06:44:01.544Z,1.61
2022-12-09T06:46:19.017Z,1.64
2022-12-09T06:48:37.180Z,1.62
2022-12-09T06:50:55.565Z,1.59
2022-12-09T06:53:12.527Z,1.59
2022-12-09T06:55:29.909Z,1.60
2022-12-09T06:57:47.442Z,1.64
2022-12-09T07:00:04.871Z,1.67
2022-12-09T07:02:22.696Z,1.65
2022-12-09T07:04:40.436Z,1.63
2022-12-09T07:06:59.028Z,1.59
2022-12-09T07:09:16.535Z,1.59
2022-12-09T07:11:35.177Z,1.58
2022-12-09T07:13:52.895Z,1.59
2022-12-09T07:16:10.322Z,1.58
2022-12-09T07:18:27.804Z,1.61
2022-12-09T07:20:46.491Z,1.61
2022-12-09T07:23:04.095Z,1.59
2022-12-09T07:25:21.535Z,1.58
2022-12-09T07:27:38.697Z,1.57
2022-12-09T07:29:56.032Z,1.61
2022-12-09T07:32:13.151Z,1.59
2022-12-09T07:34:31.557Z,1.56
2022-12-09T07:36:49.460Z,1.57
2022-12-09T07:39:06.943Z,1.57
2022-12-09T07:41:24.452Z,1.56
2022-12-09T07:43:41.637Z,1.63
2022-12-09T07:45:58.932Z,1.60
2022-12-09T07:48:16.244Z,1.59
2022-12-09T07:50:33.877Z,1.60
2022-12-09T07:52:50.965Z,1.62
2022-12-09T07:55:08.382Z,1.62
2022-12-09T07:57:26.149Z,1.65
2022-12-09T07:59:43.402Z,1.66
2022-12-09T08:02:05.754Z,1.70
2022-12-09T08:04:23.857Z,1.70
2022-12-09T08:06:41.455Z,1.71
2022-12-09T08:08:59.621Z,1.77
2022-12-09T08:11:17.308Z,1.74
2022-12-09T08:13:34.682Z,1.75
2022-12-09T08:15:51.742Z,1.75
2022-12-09T08:18:09.294Z,1.76
2022-12-09T08:20:29.348Z,1.76
2022-12-09T08:22:47.422Z,1.75
2022-12-09T08:25:04.981Z,1.73
2022-12-09T08:27:22.591Z,1.72
2022-12-09T08:29:40.185Z,1.73
2022-12-09T08:31:57.671Z,1.84
2022-12-09T08:34:16.145Z,1.81
2022-12-09T08:36:33.289Z,1.76
2022-12-09T08:38:51.017Z,1.76
2022-12-09T08:41:08.580Z,1.77
2022-12-09T08:43:25.808Z,1.77
2022-12-09T08:45:43.337Z,1.79
2022-12-09T08:48:00.635Z,1.76
2022-12-09T08:50:18.913Z,1.72
2022-12-09T08:52:40.485Z,1.75
2022-12-09T08:54:58.544Z,1.79
2022-12-09T08:57:15.533Z,1.85
2022-12-09T08:59:32.566Z,1.89
2022-12-09T09:01:49.614Z,1.94
2022-12-09T09:04:07.649Z,1.98
2022-12-09T09:06:25.297Z,2.12
2022-12-09T09:08:43.427Z,2.15
2022-12-09T09:11:01.101Z,2.13
2022-12-09T09:13:18.899Z,2.18
2022-12-09T09:15:36.626Z,2.24
2022-12-09T09:17:54.345Z,2.30
2022-12-09T09:20:12.582Z,2.34
2022-12-09T09:22:29.910Z,2.39
2022-12-09T09:24:48.318Z,2.37
2022-12-09T09:27:06.073Z,2.36
2022-12-09T09:29:23.185Z,2.43
2022-12-09T09:31:42.105Z,2.46
2022-12-09T09:33:59.858Z,2.49
2022-12-09T09:36:17.102Z,2.51
2022-12-09T09:38:34.672Z,2.51
2022-12-09T09:40:52.017Z,2.54
2022-12-09T09:43:09.637Z,2.57
2022-12-09T09:45:26.852Z,2.59
2022-12-09T09:47:44.098Z,2.64
2022-12-09T09:50:01.722Z,2.66
2022-12-09T09:52:19.043Z,2.64
2022-12-09T09:54:37.306Z,2.62
2022-12-09T09:56:55.233Z,2.63
2022-12-09T09:59:12.800Z,2.68
2022-12-09T10:01:31.445Z,2.67
2022-12-09T10:03:49.089Z,2.66
2022-12-09T10:06:06.863Z,2.71
2022-12-09T10:08:24.852Z,2.72
2022-12-09T10:10:43.442Z,2.72
2022-12-09T10:13:06.145Z,2.78
2022-12-09T10:15:27.000Z,2.77
2022-12-09T10:17:45.003Z,2.81
2022-12-09T10:20:02.790Z,2.87
2022-12-09T10:22:20.341Z,2.92
2022-12-09T10:24:40.455Z,2.91
2022-12-09T10:26:57.886Z,2.91
2022-12-09T10:29:16.155Z,2.93
2022-12-09T10:31:33.639Z,2.96
2022-12-09T10:33:51.370Z,3.01
2022-12-09T10:36:08.518Z,3.02
2022-12-09T10:38:26.898Z,3.01
2022-12-09T10:40:45.298Z,2.98
2022-12-09T10:43:02.812Z,2.93
2022-12-09T10:45:21.666Z,2.96
2022-12-09T10:47:38.923Z,2.94
2022-12-09T10:49:56.329Z,2.94
2022-12-09T10:52:13.443Z,2.92
2022-12-09T10:54:31.086Z,2.89
2022-12-09T10:56:48.693Z,2.87
2022-12-09T10:59:06.108Z,2.88
2022-12-09T11:01:23.666Z,2.86
2022-12-09T11:03:40.768Z,2.88
2022-12-09T11:05:58.420Z,2.93
2022-12-09T11:08:16.222Z,3.00
2022-12-09T11:10:33.722Z,3.11
2022-12-09T11:12:51.327Z,3.17
2022-12-09T11:15:08.965Z,3.26
2022-12-09T11:17:26.721Z,3.38
2022-12-09T11:19:43.868Z,3.51
2022-12-09T11:22:01.848Z,3.55
2022-12-09T11:24:19.529Z,3.64
2022-12-09T11:26:36.754Z,3.70
2022-12-09T11:28:53.867Z,3.80
2022-12-09T11:31:29.122Z,3.83
2022-12-09T11:33:47.369Z,3.87
2022-12-09T11:36:05.138Z,3.85
2022-12-09T11:38:22.890Z,3.85
2022-12-09T11:40:39.946Z,3.82
2022-12-09T11:42:57.320Z,3.86
2022-12-09T11:45:14.398Z,3.95
2022-12-09T11:47:44.865Z,3.96
2022-12-09T11:50:08.792Z,3.89
2022-12-09T11:52:26.084Z,3.86
2022-12-09T11:54:43.121Z,4.02
2022-12-09T11:57:00.012Z,3.94
2022-12-09T11:59:17.041Z,3.97
2022-12-09T12:01:34.400Z,3.96
2022-12-09T12:03:51.336Z,4.01
2022-12-09T12:06:08.343Z,3.98
2022-12-09T12:08:25.438Z,4.03
2022-12-09T12:10:42.782Z,3.98
2022-12-09T12:13:00.210Z,3.92
2022-12-09T12:15:17.332Z,3.90
2022-12-09T12:17:34.719Z,3.91
2022-12-09T12:19:52.083Z,3.93
2022-12-09T12:22:09.310Z,3.92
2022-12-09T12:24:26.303Z,3.90
2022-12-09T12:26:43.217Z,3.88
2022-12-09T12:29:05.516Z,3.90
2022-12-09T12:31:24.441Z,3.83
2022-12-09T12:34:07.594Z,3.75
2022-12-09T12:36:18.685Z,3.70
2022-12-09T12:38:35.715Z,3.65
2022-12-09T12:40:52.698Z,3.68
2022-12-09T12:43:09.736Z,3.67
2022-12-09T12:45:28.034Z,3.60
2022-12-09T12:47:45.119Z,3.54
2022-12-09T12:50:02.358Z,3.46
2022-12-09T12:52:53.765Z,3.42
2022-12-09T12:54:57.271Z,3.40
2022-12-09T12:57:14.586Z,3.39
2022-12-09T12:59:31.802Z,3.40
2022-12-09T13:01:48.673Z,3.42
2022-12-09T13:04:05.677Z,3.48
2022-12-09T13:06:23.251Z,3.56
2022-12-09T13:08:40.246Z,3.62
2022-12-09T13:10:57.247Z,3.63
2022-12-09T13:13:14.659Z,3.66
2022-12-09T13:15:32.921Z,3.69
2022-12-09T13:17:52.118Z,3.71
2022-12-09T13:20:09.574Z,3.73
2022-12-09T13:22:26.807Z,3.69
2022-12-09T13:24:43.768Z,3.65
2022-12-09T13:27:00.806Z,3.64
2022-12-09T13:29:18.865Z,3.62
2022-12-09T13:31:36.132Z,3.61
2022-12-09T13:33:53.393Z,3.62
2022-12-09T13:36:10.324Z,3.62
2022-12-09T13:38:28.663Z,3.60
2022-12-09T13:40:45.897Z,3.57
2022-12-09T13:43:03.200Z,3.56
2022-12-09T13:45:20.082Z,3.57
2022-12-09T13:47:37.306Z,3.54
2022-12-09T13:49:54.540Z,3.56
2022-12-09T13:52:11.833Z,3.54
2022-12-09T13:54:28.827Z,3.56
2022-12-09T13:56:45.746Z,3.54
2022-12-09T13:59:03.023Z,3.54
2022-12-09T14:01:20.285Z,3.53
2022-12-09T14:03:38.292Z,3.52
2022-12-09T14:05:55.594Z,3.51
2022-12-09T14:08:12.661Z,3.50
2022-12-09T14:10:30.804Z,3.50
2022-12-09T14:12:48.803Z,3.52
2022-12-09T14:15:05.773Z,3.52
2022-12-09T14:17:22.798Z,3.52
2022-12-09T14:19:40.766Z,3.53
2022-12-09T14:21:57.668Z,3.52
2022-12-09T14:24:14.615Z,3.54
2022-12-09T14:26:31.543Z,3.54
2022-12-09T14:28:48.821Z,3.51
2022-12-09T14:31:08.865Z,3.48
2022-12-09T14:33:26.547Z,3.47
2022-12-09T14:35:44.713Z,3.46
2022-12-09T14:38:02.018Z,3.45
2022-12-09T14:40:18.939Z,3.46
2022-12-09T14:42:36.272Z,3.47
2022-12-09T14:44:53.203Z,3.45
2022-12-09T14:47:13.558Z,3.42
2022-12-09T14:49:31.931Z,3.49
2022-12-09T14:51:49.178Z,3.40
2022-12-09T14:54:06.372Z,3.35
2022-12-09T14:56:24.490Z,3.35
2022-12-09T14:58:41.522Z,3.34
2022-12-09T15:00:58.768Z,3.34
2022-12-09T15:03:34.408Z,3.30
2022-12-09T15:05:52.811Z,3.25
2022-12-09T15:08:09.789Z,3.29
2022-12-09T15:10:30.906Z,3.26
2022-12-09T15:12:49.154Z,3.28
2022-12-09T15:15:06.492Z,3.24
2022-12-09T15:17:23.473Z,3.21
2022-12-09T15:22:17.418Z,3.18
2022-12-09T15:24:49.230Z,3.16
2022-12-09T15:27:06.959Z,3.13
2022-12-09T15:29:24.138Z,3.12
2022-12-09T15:31:42.212Z,3.08
2022-12-09T15:33:59.596Z,3.08
2022-12-09T15:36:16.901Z,3.05
2022-12-09T15:38:38.981Z,3.01
2022-12-09T15:40:57.831Z,2.94
2022-12-09T15:43:15.120Z,2.98
2022-12-09T15:45:32.364Z,2.91
2022-12-09T15:47:49.633Z,2.89
2022-12-09T15:50:07.174Z,2.86
2022-12-09T15:52:25.432Z,2.88
2022-12-09T15:54:42.395Z,2.82
2022-12-09T15:57:00.409Z,2.80
2022-12-09T15:59:17.333Z,2.79
2022-12-09T16:01:34.427Z,2.81
2022-12-09T16:03:51.523Z,2.83
2022-12-09T16:06:08.698Z,2.80
2022-12-09T16:08:26.733Z,2.72
2022-12-09T16:10:45.039Z,2.68
2022-12-09T16:13:02.368Z,2.69
2022-12-09T16:15:19.670Z,2.63
2022-12-09T16:17:36.537Z,2.60
2022-12-09T16:19:53.845Z,2.56
2022-12-09T16:22:12.138Z,2.53
2022-12-09T16:24:50.769Z,2.51
2022-12-09T16:27:06.004Z,2.51
2022-12-09T16:29:23.456Z,2.48
2022-12-09T16:31:40.745Z,2.46
2022-12-09T16:33:57.777Z,2.47
2022-12-09T16:36:15.712Z,2.46
2022-12-09T16:38:32.796Z,2.45
2022-12-09T16:40:49.763Z,2.45
2022-12-09T16:43:07.088Z,2.45
2022-12-09T16:45:25.028Z,2.43
2022-12-09T16:47:41.996Z,2.43
2022-12-09T16:49:59.033Z,2.44
2022-12-09T16:52:16.048Z,2.45
2022-12-09T16:54:33.461Z,2.42
2022-12-09T16:56:51.392Z,2.40
2022-12-09T16:59:08.376Z,2.39
2022-12-09T17:01:25.696Z,2.39
2022-12-09T17:03:42.782Z,2.39
2022-12-09T17:05:59.815Z,2.38
2022-12-09T17:08:16.915Z,2.35
2022-12-09T17:10:33.968Z,2.34
2022-12-09T17:12:50.997Z,2.36
2022-12-09T17:15:07.934Z,2.34
2022-12-09T17:17:24.839Z,2.33
2022-12-09T17:19:43.197Z,2.37
2022-12-09T17:22:01.147Z,2.39
2022-12-09T17:24:18.382Z,2.37
2022-12-09T17:26:35.388Z,2.32
2022-12-09T17:28:56.827Z,2.33
2022-12-09T17:31:18.175Z,2.31
2022-12-09T17:33:35.291Z,2.28
2022-12-09T17:35:52.834Z,2.24
2022-12-09T17:38:10.051Z,2.27
2022-12-09T17:40:26.942Z,2.28
2022-12-09T17:42:43.882Z,2.26
2022-12-09T17:45:00.823Z,2.24
2022-12-09T17:47:18.082Z,2.20
2022-12-09T17:49:35.146Z,2.18
2022-12-09T17:51:52.155Z,2.18
2022-12-09T17:54:09.168Z,2.16
2022-12-09T17:56:26.134Z,2.16
2022-12-09T17:58:43.082Z,2.13
2022-12-09T18:01:00.420Z,2.09
2022-12-09T18:03:39.332Z,2.07
2022-12-09T18:05:55.829Z,2.06
2022-12-09T18:08:12.776Z,2.02
2022-12-09T18:10:30.025Z,2.00
2022-12-09T18:12:47.007Z,1.99
2022-12-09T18:15:03.973Z,1.95
2022-12-09T18:17:21.246Z,1.96
2022-12-09T18:19:38.582Z,1.94
2022-12-09T18:21:55.559Z,1.95
2022-12-09T18:24:13.315Z,1.90
2022-12-09T18:26:34.059Z,1.86
2022-12-09T18:28:52.668Z,1.79
2022-12-09T18:31:09.737Z,1.77
2022-12-09T18:33:26.837Z,1.72
2022-12-09T18:35:43.838Z,1.70
2022-12-09T18:38:07.199Z,1.65
2022-12-09T18:40:29.732Z,1.63
2022-12-09T18:42:46.575Z,1.52
2022-12-09T18:45:03.551Z,1.49
2022-12-09T18:47:20.600Z,1.44
2022-12-09T18:49:37.866Z,1.42
2022-12-09T18:51:54.912Z,1.43
2022-12-09T18:54:11.783Z,1.45
2022-12-09T18:56:28.798Z,1.47
2022-12-09T19:01:22.737Z,1.47
2022-12-09T19:03:39.790Z,1.50
2022-12-09T19:05:56.830Z,1.52
2022-12-09T19:08:14.057Z,1.53
2022-12-09T19:10:31.024Z,1.53
2022-12-09T19:12:51.549Z,1.54
2022-12-09T19:15:12.213Z,1.54
2022-12-09T19:17:29.138Z,1.59
2022-12-09T19:19:46.094Z,1.58
2022-12-09T19:22:03.103Z,1.61
2022-12-09T19:24:20.338Z,1.59
2022-12-09T19:26:37.566Z,1.60
2022-12-09T19:28:54.620Z,1.58
2022-12-09T19:31:11.716Z,1.59
2022-12-09T19:33:28.826Z,1.58
2022-12-09T19:35:45.812Z,1.59
2022-12-09T19:38:02.671Z,1.59
2022-12-09T19:40:19.869Z,1.61
2022-12-09T19:42:37.199Z,1.60
2022-12-09T19:45:03.695Z,1.60
2022-12-09T19:47:22.412Z,1.61
2022-12-09T19:49:39.672Z,1.65
2022-12-09T19:51:56.982Z,1.65
2022-12-09T19:54:13.917Z,1.68
2022-12-09T19:56:31.148Z,1.67
2022-12-09T19:58:48.667Z,1.69
2022-12-09T20:01:06.701Z,1.65
2022-12-09T20:03:23.889Z,1.63
2022-12-09T20:05:40.870Z,1.60
2022-12-09T20:07:58.234Z,1.62
2022-12-09T20:10:15.642Z,1.61
2022-12-09T20:12:32.711Z,1.60
2022-12-09T20:14:49.613Z,1.59
2022-12-09T20:17:07.620Z,1.63
2022-12-09T20:19:24.652Z,1.64
2022-12-09T20:21:41.967Z,1.64
2022-12-09T20:23:58.976Z,1.60
2022-12-09T20:26:16.998Z,1.60
2022-12-09T20:28:33.936Z,1.58
2022-12-09T20:30:51.008Z,1.59
2022-12-09T20:33:08.044Z,1.57
2022-12-09T20:35:24.975Z,1.58
2022-12-09T20:37:41.908Z,1.58
2022-12-09T20:39:59.113Z,1.61
2022-12-09T20:42:16.042Z,1.63
2022-12-09T20:44:33.011Z,1.63
2022-12-09T20:46:49.945Z,1.68
2022-12-09T20:49:06.854Z,1.69
2022-12-09T20:51:23.843Z,1.69
2022-12-09T20:53:40.786Z,1.65
2022-12-09T20:55:58.155Z,1.63
2022-12-09T20:58:15.429Z,1.62
2022-12-09T21:00:32.449Z,1.59
2022-12-09T21:02:49.363Z,1.64
2022-12-09T21:05:07.399Z,1.60
2022-12-09T21:07:24.363Z,1.60
2022-12-09T21:09:41.376Z,1.62
2022-12-09T21:11:58.310Z,1.59
2022-12-09T21:14:15.246Z,1.59
2022-12-09T21:16:32.311Z,1.56
2022-12-09T21:18:49.568Z,1.56
2022-12-09T21:21:06.438Z,1.60
2022-12-09T21:23:33.640Z,1.67
2022-12-09T21:25:51.202Z,1.62
2022-12-09T21:28:08.495Z,1.62
2022-12-09T21:30:25.714Z,1.60
2022-12-09T21:32:43.689Z,1.58
2022-12-09T21:35:00.703Z,1.54
2022-12-09T21:37:17.715Z,1.56
2022-12-09T21:39:34.954Z,1.57
2022-12-09T21:41:52.417Z,1.58
2022-12-09T21:44:09.730Z,1.59
2022-12-09T21:46:26.802Z,1.60
2022-12-09T21:48:44.527Z,1.61
2022-12-09T21:51:03.213Z,1.63
2022-12-09T21:53:21.367Z,1.63
2022-12-09T21:55:38.403Z,1.63
2022-12-09T21:57:56.646Z,1.62
2022-12-09T22:00:13.497Z,1.64
2022-12-09T22:02:30.779Z,1.64
2022-12-09T22:04:48.069Z,1.66
2022-12-09T22:07:05.029Z,1.65
2022-12-09T22:09:22.323Z,1.63
2022-12-09T22:11:39.255Z,1.64
2022-12-09T22:13:56.294Z,1.62
2022-12-09T22:16:13.334Z,1.61
2022-12-09T22:18:30.443Z,1.64
2022-12-09T22:21:22.996Z,1.65
2022-12-09T22:23:24.461Z,1.68
2022-12-09T22:25:41.498Z,1.64
2022-12-09T22:27:58.782Z,1.64
2022-12-09T22:30:16.094Z,1.62
2022-12-09T22:32:37.868Z,1.60
2022-12-09T22:34:57.837Z,1.59
2022-12-09T22:37:42.068Z,1.59
2022-12-09T22:39:51.950Z,1.59
2022-12-09T22:42:09.181Z,1.59
2022-12-09T22:44:26.141Z,1.59
2022-12-09T22:46:43.485Z,1.59
2022-12-09T22:49:00.550Z,1.58
2022-12-09T22:51:17.859Z,1.60
2022-12-09T22:53:35.150Z,1.59
2022-12-09T22:55:52.505Z,1.59
2022-12-09T22:58:09.721Z,1.65
2022-12-09T23:00:26.658Z,1.69
2022-12-09T23:02:43.716Z,1.65
2022-12-09T23:05:01.151Z,1.64
2022-12-09T23:07:18.459Z,1.70
2022-12-09T23:09:35.697Z,1.65
2022-12-09T23:11:52.889Z,1.64
2022-12-09T23:14:10.368Z,1.60
2022-12-09T23:16:27.420Z,1.63
2022-12-09T23:18:44.614Z,1.62
2022-12-09T23:21:01.945Z,1.59
2022-12-09T23:23:18.880Z,1.57
2022-12-09T23:25:36.195Z,1.56
2022-12-09T23:27:53.185Z,1.55
2022-12-09T23:30:10.425Z,1.56
2022-12-09T23:32:28.586Z,1.56
2022-12-09T23:34:45.556Z,1.54
2022-12-09T23:37:02.873Z,1.53
2022-12-09T23:39:19.908Z,1.52
2022-12-09T23:41:37.271Z,1.51
2022-12-09T23:43:54.658Z,1.50
2022-12-09T23:46:15.822Z,1.51
2022-12-09T23:48:33.446Z,1.51
2022-12-09T23:50:50.791Z,1.49
2022-12-09T23:53:08.103Z,1.50
2022-12-09T23:55:25.594Z,1.51
2022-12-09T23:57:42.897Z,1.49
2022-12-09T23:59:59.886Z,1.46
